createdAt,value
2019-03-24T00:01:47.323Z,30.97
2019-03-24T00:04:19.841Z,31.23
2019-03-24T00:06:52.264Z,33.03
2019-03-24T00:09:24.697Z,32.50
2019-03-24T00:11:57.595Z,33.00
2019-03-24T00:14:30.239Z,31.37
2019-03-24T00:17:02.778Z,29.47
2019-03-24T00:19:35.324Z,33.47
2019-03-24T00:22:08.492Z,31.27
2019-03-24T00:24:41.464Z,32.40
2019-03-24T00:27:14.421Z,31.53
2019-03-24T00:29:47.209Z,33.00
2019-03-24T00:32:20.031Z,32.63
2019-03-24T00:34:52.646Z,33.60
2019-03-24T00:37:25.160Z,32.03
2019-03-24T00:39:57.694Z,33.33
2019-03-24T00:42:30.913Z,31.10
2019-03-24T00:45:03.559Z,34.87
2019-03-24T00:47:36.473Z,34.40
2019-03-24T00:50:09.440Z,34.97
2019-03-24T00:52:42.230Z,33.97
2019-03-24T00:55:14.805Z,36.13
2019-03-24T00:57:47.253Z,33.27
2019-03-24T01:00:25.040Z,32.93
2019-03-24T01:02:57.773Z,33.67
2019-03-24T01:05:30.235Z,32.97
2019-03-24T01:08:02.857Z,33.83
2019-03-24T01:10:35.229Z,37.67
2019-03-24T01:13:07.643Z,34.40
2019-03-24T01:15:47.646Z,35.07
2019-03-24T01:18:15.060Z,32.87
2019-03-24T01:20:47.605Z,32.87
2019-03-24T01:23:20.575Z,35.03
2019-03-24T01:25:52.982Z,34.07
2019-03-24T01:28:25.488Z,35.93
2019-03-24T01:30:58.137Z,32.50
2019-03-24T01:33:30.742Z,32.50
2019-03-24T01:36:03.494Z,33.17
2019-03-24T01:38:36.105Z,32.20
2019-03-24T01:41:08.561Z,30.63
2019-03-24T01:43:40.983Z,30.40
2019-03-24T01:46:13.573Z,30.07
2019-03-24T01:48:45.990Z,29.07
2019-03-24T01:51:18.557Z,29.50
2019-03-24T01:53:50.989Z,28.27
2019-03-24T01:56:23.518Z,31.00
2019-03-24T01:58:55.977Z,28.00
2019-03-24T02:01:28.481Z,25.63
2019-03-24T02:04:02.602Z,27.90
2019-03-24T02:06:35.106Z,26.40
2019-03-24T02:09:09.928Z,27.10
2019-03-24T02:11:42.432Z,25.67
2019-03-24T02:14:15.440Z,23.47
2019-03-24T02:16:47.878Z,22.73
2019-03-24T02:19:22.910Z,21.10
2019-03-24T02:21:55.366Z,19.80
2019-03-24T02:24:27.764Z,20.87
2019-03-24T02:27:00.185Z,20.50
2019-03-24T02:29:32.819Z,18.70
2019-03-24T02:32:05.674Z,19.60
2019-03-24T02:34:38.202Z,17.60
2019-03-24T02:37:10.743Z,18.50
2019-03-24T02:39:43.164Z,16.30
2019-03-24T02:42:15.621Z,18.17
2019-03-24T02:44:48.318Z,16.17
2019-03-24T02:47:20.722Z,13.90
2019-03-24T02:49:53.383Z,15.30
2019-03-24T02:52:25.780Z,15.10
2019-03-24T02:54:58.157Z,16.67
2019-03-24T02:57:30.926Z,14.27
2019-03-24T03:00:03.425Z,13.90
2019-03-24T03:02:35.928Z,16.10
2019-03-24T03:05:10.161Z,18.20
2019-03-24T03:07:42.522Z,17.73
2019-03-24T03:10:16.637Z,17.77
2019-03-24T03:12:49.162Z,17.10
2019-03-24T03:15:21.611Z,17.13
2019-03-24T03:17:54.043Z,15.33
2019-03-24T03:20:27.034Z,15.70
2019-03-24T03:22:59.861Z,14.30
2019-03-24T03:25:32.268Z,15.20
2019-03-24T03:28:04.914Z,16.00
2019-03-24T03:30:37.428Z,17.40
2019-03-24T03:33:10.135Z,16.87
2019-03-24T03:35:42.606Z,19.67
2019-03-24T03:38:15.047Z,18.93
2019-03-24T03:40:47.479Z,19.30
2019-03-24T03:43:20.376Z,18.50
2019-03-24T03:45:52.830Z,17.90
2019-03-24T03:48:25.289Z,16.07
2019-03-24T03:50:57.700Z,15.40
2019-03-24T03:53:30.389Z,15.50
2019-03-24T03:56:02.883Z,15.00
2019-03-24T03:58:35.770Z,12.90
2019-03-24T04:01:08.293Z,11.83
2019-03-24T04:03:40.802Z,12.80
2019-03-24T04:06:13.256Z,13.23
2019-03-24T04:08:45.669Z,13.10
2019-03-24T04:11:18.295Z,16.47
2019-03-24T04:13:51.152Z,17.77
2019-03-24T04:16:23.825Z,16.60
2019-03-24T04:18:56.236Z,15.37
2019-03-24T04:21:28.644Z,16.23
2019-03-24T04:24:01.062Z,17.83
2019-03-24T04:26:33.531Z,20.03
2019-03-24T04:29:06.339Z,19.30
2019-03-24T04:31:38.764Z,18.10
2019-03-24T04:34:11.189Z,17.47
2019-03-24T04:36:43.680Z,17.40
2019-03-24T04:39:16.186Z,15.57
2019-03-24T04:41:48.628Z,15.10
2019-03-24T04:44:21.456Z,15.70
2019-03-24T04:46:53.967Z,16.70
2019-03-24T04:49:26.657Z,17.63
2019-03-24T04:51:59.062Z,21.07
2019-03-24T04:54:31.518Z,18.40
2019-03-24T04:57:03.943Z,21.87
2019-03-24T04:59:36.565Z,22.57
2019-03-24T05:02:08.986Z,22.80
2019-03-24T05:04:41.389Z,22.60
2019-03-24T05:07:13.787Z,20.70
2019-03-24T05:09:46.557Z,23.03
2019-03-24T05:12:18.978Z,21.47
2019-03-24T05:14:51.842Z,21.20
2019-03-24T05:17:27.244Z,19.50
2019-03-24T05:19:58.393Z,19.47
2019-03-24T05:22:30.976Z,19.77
2019-03-24T05:25:03.469Z,18.63
2019-03-24T05:27:35.933Z,19.40
2019-03-24T05:30:08.758Z,19.30
2019-03-24T05:32:41.305Z,16.97
2019-03-24T05:35:14.099Z,16.37
2019-03-24T05:37:46.581Z,17.10
2019-03-24T05:40:19.050Z,21.17
2019-03-24T05:42:51.815Z,21.53
2019-03-24T05:45:24.432Z,21.50
2019-03-24T05:47:56.984Z,21.50
2019-03-24T05:50:29.434Z,24.17
2019-03-24T05:53:02.007Z,26.57
2019-03-24T05:55:34.425Z,23.07
2019-03-24T05:58:06.893Z,25.27
2019-03-24T06:00:39.314Z,25.53
2019-03-24T06:03:11.947Z,24.27
2019-03-24T06:05:44.350Z,24.87
2019-03-24T06:08:16.781Z,24.90
2019-03-24T06:10:49.197Z,25.13
2019-03-24T06:13:21.604Z,25.10
2019-03-24T06:15:53.996Z,25.73
2019-03-24T06:18:26.677Z,24.70
2019-03-24T06:20:59.113Z,25.23
2019-03-24T06:23:31.535Z,23.93
2019-03-24T06:26:03.982Z,24.00
2019-03-24T06:28:36.380Z,23.30
2019-03-24T06:31:08.844Z,24.57
2019-03-24T06:33:41.375Z,23.67
2019-03-24T06:36:13.944Z,24.27
2019-03-24T06:38:46.428Z,23.97
2019-03-24T06:41:18.887Z,21.60
2019-03-24T06:43:51.646Z,22.60
2019-03-24T06:46:24.262Z,21.37
2019-03-24T06:48:56.796Z,22.17
2019-03-24T06:51:29.286Z,24.93
2019-03-24T06:54:01.862Z,25.73
2019-03-24T06:56:34.675Z,27.07
2019-03-24T06:59:07.159Z,28.20
2019-03-24T07:01:39.675Z,27.20
2019-03-24T07:04:12.163Z,28.90
2019-03-24T07:06:44.654Z,28.70
2019-03-24T07:09:17.199Z,30.17
2019-03-24T07:11:49.764Z,26.43
2019-03-24T07:14:22.299Z,28.47
2019-03-24T07:16:54.764Z,31.50
2019-03-24T07:19:27.226Z,27.03
2019-03-24T07:21:59.652Z,27.83
2019-03-24T07:24:32.425Z,27.30
2019-03-24T07:27:05.048Z,28.37
2019-03-24T07:29:37.449Z,27.70
2019-03-24T07:32:10.044Z,26.00
2019-03-24T07:34:42.609Z,25.90
2019-03-24T07:37:15.188Z,26.30
2019-03-24T07:39:47.662Z,25.20
2019-03-24T07:42:20.233Z,26.33
2019-03-24T07:44:52.803Z,27.67
2019-03-24T07:47:25.273Z,24.43
2019-03-24T07:49:57.746Z,23.13
2019-03-24T07:52:30.286Z,24.63
2019-03-24T07:55:02.730Z,25.20
2019-03-24T07:57:35.652Z,24.03
2019-03-24T08:00:09.821Z,25.23
2019-03-24T08:02:51.557Z,27.33
2019-03-24T08:05:24.146Z,26.63
2019-03-24T08:07:56.686Z,26.30
2019-03-24T08:10:29.276Z,24.83
2019-03-24T08:13:01.887Z,23.30
2019-03-24T08:15:34.299Z,23.77
2019-03-24T08:18:06.856Z,26.27
2019-03-24T08:20:39.303Z,26.70
2019-03-24T08:23:11.897Z,25.60
2019-03-24T08:25:44.384Z,23.57
2019-03-24T08:28:17.052Z,26.17
2019-03-24T08:30:49.796Z,26.10
2019-03-24T08:33:22.351Z,24.20
2019-03-24T08:35:55.153Z,27.27
2019-03-24T08:38:27.626Z,24.70
2019-03-24T08:41:00.091Z,24.00
2019-03-24T08:43:32.707Z,25.07
2019-03-24T08:46:05.299Z,24.13
2019-03-24T08:48:41.198Z,22.97
2019-03-24T08:51:12.284Z,24.90
2019-03-24T08:53:44.779Z,23.90
2019-03-24T08:56:17.285Z,27.40
2019-03-24T08:58:49.876Z,27.57
2019-03-24T09:01:22.385Z,22.60
2019-03-24T09:03:54.842Z,25.70
2019-03-24T09:06:27.315Z,24.80
2019-03-24T09:09:00.048Z,23.13
2019-03-24T09:11:32.537Z,23.47
2019-03-24T09:14:05.058Z,22.87
2019-03-24T09:16:37.681Z,22.80
2019-03-24T09:19:10.182Z,25.50
2019-03-24T09:21:43.786Z,23.10
2019-03-24T09:24:16.325Z,22.90
2019-03-24T09:26:48.907Z,21.43
2019-03-24T09:29:21.447Z,21.80
2019-03-24T09:31:54.139Z,24.20
2019-03-24T09:34:26.656Z,24.03
2019-03-24T09:36:59.604Z,25.30
2019-03-24T09:39:32.188Z,24.43
2019-03-24T09:42:04.726Z,25.07
2019-03-24T09:44:37.405Z,23.97
2019-03-24T09:47:10.296Z,22.77
2019-03-24T09:49:42.738Z,24.30
2019-03-24T09:52:15.318Z,21.27
2019-03-24T09:54:48.244Z,25.23
2019-03-24T09:57:20.942Z,22.50
2019-03-24T09:59:53.437Z,23.10
2019-03-24T10:02:26.091Z,23.27
2019-03-24T10:04:58.879Z,23.50
2019-03-24T10:07:31.473Z,21.93
2019-03-24T10:10:04.088Z,23.20
2019-03-24T10:12:36.720Z,22.03
2019-03-24T10:15:09.509Z,22.70
2019-03-24T10:17:42.450Z,22.97
2019-03-24T10:20:15.365Z,23.47
2019-03-24T10:22:47.908Z,22.17
2019-03-24T10:25:20.923Z,24.20
2019-03-24T10:27:53.412Z,25.93
2019-03-24T10:30:26.080Z,25.60
2019-03-24T10:32:58.774Z,27.20
2019-03-24T10:35:31.261Z,27.00
2019-03-24T10:38:03.776Z,25.77
2019-03-24T10:40:36.499Z,23.00
2019-03-24T10:43:10.595Z,24.37
2019-03-24T10:45:43.196Z,23.80
2019-03-24T10:48:15.880Z,26.87
2019-03-24T10:50:48.508Z,25.60
2019-03-24T10:53:21.504Z,26.90
2019-03-24T10:55:54.490Z,27.27
2019-03-24T10:58:27.010Z,27.33
2019-03-24T11:00:59.842Z,28.50
2019-03-24T11:03:32.461Z,29.80
2019-03-24T11:06:04.920Z,25.40
2019-03-24T11:08:37.410Z,27.30
2019-03-24T11:11:09.815Z,24.20
2019-03-24T11:13:42.379Z,24.77
2019-03-24T11:16:14.943Z,24.40
2019-03-24T11:18:47.667Z,25.50
2019-03-24T11:21:20.634Z,25.13
2019-03-24T11:23:53.133Z,26.10
2019-03-24T11:26:25.576Z,25.00
2019-03-24T11:28:58.207Z,24.23
2019-03-24T11:31:30.702Z,24.73
2019-03-24T11:34:03.149Z,24.10
2019-03-24T11:36:35.802Z,24.67
2019-03-24T11:39:09.867Z,24.57
2019-03-24T11:41:42.857Z,28.37
2019-03-24T11:44:15.397Z,24.70
2019-03-24T11:46:48.048Z,26.40
2019-03-24T11:49:21.232Z,24.00
2019-03-24T11:51:54.019Z,25.20
2019-03-24T11:54:26.565Z,25.60
2019-03-24T11:56:59.015Z,26.03
2019-03-24T11:59:31.631Z,25.60
2019-03-24T12:02:04.822Z,26.23
2019-03-24T12:04:39.069Z,24.27
2019-03-24T12:07:11.766Z,28.10
2019-03-24T12:09:44.211Z,26.93
2019-03-24T12:12:16.794Z,26.00
2019-03-24T12:14:49.651Z,24.90
2019-03-24T12:17:22.315Z,23.47
2019-03-24T12:19:57.060Z,23.33
2019-03-24T12:22:29.261Z,26.60
2019-03-24T12:25:02.191Z,26.90
2019-03-24T12:27:34.826Z,25.23
2019-03-24T12:30:10.018Z,23.40
2019-03-24T12:32:42.613Z,28.97
2019-03-24T12:35:15.136Z,27.50
2019-03-24T12:37:48.117Z,26.70
2019-03-24T12:40:20.760Z,27.40
2019-03-24T12:42:53.305Z,25.10
2019-03-24T12:45:26.182Z,26.00
2019-03-24T12:47:58.742Z,27.30
2019-03-24T12:50:31.942Z,29.43
2019-03-24T12:53:04.806Z,26.10
2019-03-24T12:55:37.603Z,25.43
2019-03-24T12:58:10.270Z,26.37
2019-03-24T13:00:43.331Z,27.57
2019-03-24T13:03:16.198Z,25.70
2019-03-24T13:05:48.766Z,23.53
2019-03-24T13:08:21.505Z,24.07
2019-03-24T13:10:54.137Z,24.60
2019-03-24T13:13:26.749Z,24.60
2019-03-24T13:15:59.736Z,25.50
2019-03-24T13:18:32.263Z,23.60
2019-03-24T13:21:04.762Z,23.90
2019-03-24T13:23:37.651Z,27.73
2019-03-24T13:26:10.226Z,25.57
2019-03-24T13:28:42.874Z,22.40
2019-03-24T13:31:15.569Z,24.00
2019-03-24T13:33:48.368Z,25.73
2019-03-24T13:36:20.918Z,27.87
2019-03-24T13:38:53.727Z,26.37
2019-03-24T13:41:26.356Z,25.20
2019-03-24T13:43:58.975Z,24.00
2019-03-24T13:46:31.636Z,26.13
2019-03-24T13:49:04.181Z,27.10
2019-03-24T13:51:36.783Z,24.80
2019-03-24T13:54:09.594Z,25.20
2019-03-24T13:56:42.215Z,23.20
2019-03-24T13:59:14.854Z,21.60
2019-03-24T14:01:47.359Z,22.70
2019-03-24T14:04:19.853Z,22.73
2019-03-24T14:06:52.456Z,23.33
2019-03-24T14:09:25.825Z,23.50
2019-03-24T14:11:58.399Z,22.33
2019-03-24T14:14:31.056Z,22.90
2019-03-24T14:17:03.599Z,24.20
2019-03-24T14:19:36.104Z,25.47
2019-03-24T14:22:08.676Z,24.00
2019-03-24T14:24:41.259Z,25.07
2019-03-24T14:27:13.944Z,23.97
2019-03-24T14:29:46.536Z,22.50
2019-03-24T14:32:19.118Z,22.23
2019-03-24T14:34:51.584Z,24.10
2019-03-24T14:37:24.140Z,23.00
2019-03-24T14:39:56.611Z,25.73
2019-03-24T14:42:29.163Z,25.33
2019-03-24T14:45:01.901Z,26.23
2019-03-24T14:47:34.412Z,27.50
2019-03-24T14:50:07.280Z,27.70
2019-03-24T14:52:39.784Z,25.20
2019-03-24T14:55:12.218Z,26.40
2019-03-24T14:57:44.752Z,24.63
2019-03-24T15:00:24.121Z,25.40
2019-03-24T15:02:56.707Z,22.70
2019-03-24T15:05:29.504Z,23.00
2019-03-24T15:08:02.056Z,24.07
2019-03-24T15:10:35.573Z,25.10
2019-03-24T15:13:08.192Z,23.70
2019-03-24T15:15:40.637Z,28.60
2019-03-24T15:18:13.253Z,29.53
2019-03-24T15:20:46.078Z,26.77
2019-03-24T15:23:18.734Z,25.60
2019-03-24T15:25:51.260Z,26.20
2019-03-24T15:28:23.750Z,24.93
2019-03-24T15:30:56.363Z,23.43
2019-03-24T15:33:29.266Z,24.10
2019-03-24T15:36:01.814Z,25.43
2019-03-24T15:38:34.350Z,28.67
2019-03-24T15:41:06.833Z,26.53
2019-03-24T15:43:41.169Z,25.10
2019-03-24T15:46:13.903Z,24.60
2019-03-24T15:48:46.554Z,22.93
2019-03-24T15:51:19.098Z,22.23
2019-03-24T15:53:51.719Z,23.87
2019-03-24T15:56:24.309Z,21.07
2019-03-24T15:58:56.811Z,22.87
2019-03-24T16:01:29.355Z,22.17
2019-03-24T16:04:02.087Z,20.10
2019-03-24T16:06:34.628Z,24.77
2019-03-24T16:09:09.318Z,24.27
2019-03-24T16:11:41.864Z,25.03
2019-03-24T16:14:14.458Z,22.80
2019-03-24T16:16:47.061Z,22.40
2019-03-24T16:19:19.870Z,21.90
2019-03-24T16:21:52.404Z,20.53
2019-03-24T16:24:24.953Z,21.77
2019-03-24T16:26:57.811Z,18.80
2019-03-24T16:29:30.632Z,21.33
2019-03-24T16:32:03.066Z,19.43
2019-03-24T16:34:35.732Z,21.27
2019-03-24T16:37:08.289Z,21.53
2019-03-24T16:39:40.797Z,21.90
2019-03-24T16:42:13.558Z,19.30
2019-03-24T16:44:46.075Z,21.37
2019-03-24T16:47:18.973Z,20.13
2019-03-24T16:49:51.622Z,19.57
2019-03-24T16:52:24.420Z,19.60
2019-03-24T16:54:56.887Z,19.10
2019-03-24T16:57:29.466Z,19.47
2019-03-24T17:00:02.163Z,20.57
2019-03-24T17:02:34.936Z,21.17
2019-03-24T17:05:07.843Z,20.60
2019-03-24T17:07:40.437Z,17.60
2019-03-24T17:10:13.169Z,18.97
2019-03-24T17:12:45.695Z,19.70
2019-03-24T17:15:18.378Z,18.07
2019-03-24T17:17:51.025Z,18.87
2019-03-24T17:20:23.774Z,19.90
2019-03-24T17:22:56.506Z,19.63
2019-03-24T17:25:29.658Z,17.60
2019-03-24T17:28:02.177Z,18.40
2019-03-24T17:30:34.715Z,18.70
2019-03-24T17:33:07.313Z,16.80
2019-03-24T17:35:40.437Z,17.43
2019-03-24T17:38:13.080Z,17.87
2019-03-24T17:40:45.541Z,16.80
2019-03-24T17:43:18.098Z,17.40
2019-03-24T17:45:50.720Z,16.80
2019-03-24T17:48:23.777Z,16.73
2019-03-24T17:50:56.600Z,17.30
2019-03-24T17:53:29.477Z,16.87
2019-03-24T17:56:02.072Z,15.10
2019-03-24T17:58:34.760Z,14.60
2019-03-24T18:01:07.252Z,16.80
2019-03-24T18:03:39.824Z,17.33
2019-03-24T18:06:12.453Z,15.20
2019-03-24T18:08:45.151Z,15.57
2019-03-24T18:11:17.926Z,13.30
2019-03-24T18:13:50.554Z,13.80
2019-03-24T18:16:23.087Z,11.63
2019-03-24T18:18:55.707Z,11.87
2019-03-24T18:21:28.374Z,13.83
2019-03-24T18:24:01.101Z,12.47
2019-03-24T18:26:33.584Z,12.70
2019-03-24T18:29:10.223Z,10.37
2019-03-24T18:31:42.742Z,10.27
2019-03-24T18:34:15.350Z,9.53
2019-03-24T18:36:48.072Z,8.93
2019-03-24T18:39:21.259Z,10.60
2019-03-24T18:41:53.794Z,10.20
2019-03-24T18:44:26.654Z,9.37
2019-03-24T18:46:59.371Z,10.77
2019-03-24T18:49:31.938Z,9.47
2019-03-24T18:52:04.490Z,10.20
2019-03-24T18:54:37.229Z,10.47
2019-03-24T18:57:09.773Z,8.60
2019-03-24T18:59:42.374Z,8.50
2019-03-24T19:02:15.002Z,8.33
2019-03-24T19:04:47.922Z,8.67
2019-03-24T19:07:20.492Z,8.27
2019-03-24T19:09:53.236Z,7.17
2019-03-24T19:12:25.907Z,7.50
2019-03-24T19:14:58.529Z,8.50
2019-03-24T19:17:31.304Z,8.37
2019-03-24T19:20:03.932Z,8.30
2019-03-24T19:22:36.639Z,7.83
2019-03-24T19:25:10.630Z,9.20
2019-03-24T19:27:43.335Z,7.47
2019-03-24T19:30:17.022Z,9.40
2019-03-24T19:32:50.642Z,7.27
2019-03-24T19:35:23.523Z,7.90
2019-03-24T19:37:57.007Z,7.07
2019-03-24T19:40:31.281Z,7.83
2019-03-24T19:43:04.075Z,7.83
2019-03-24T19:45:37.022Z,6.80
2019-03-24T19:48:09.721Z,7.37
2019-03-24T19:50:42.417Z,7.20
2019-03-24T19:53:14.887Z,7.97
2019-03-24T19:55:47.686Z,8.10
2019-03-24T19:58:20.439Z,8.33
2019-03-24T20:00:52.989Z,7.37
2019-03-24T20:03:25.624Z,8.53
2019-03-24T20:05:58.123Z,8.50
2019-03-24T20:08:30.781Z,8.03
2019-03-24T20:11:03.461Z,9.10
2019-03-24T20:13:36.177Z,8.10
2019-03-24T20:16:08.864Z,9.13
2019-03-24T20:18:41.375Z,10.37
2019-03-24T20:21:13.938Z,10.03
2019-03-24T20:23:46.589Z,10.17
2019-03-24T20:26:19.160Z,10.30
2019-03-24T20:28:51.871Z,11.07
2019-03-24T20:31:24.371Z,10.97
2019-03-24T20:33:56.911Z,10.80
2019-03-24T20:36:29.508Z,12.57
2019-03-24T20:39:02.139Z,12.37
2019-03-24T20:41:34.622Z,13.57
2019-03-24T20:44:07.279Z,13.20
2019-03-24T20:46:39.950Z,11.77
2019-03-24T20:49:12.466Z,12.23
2019-03-24T20:51:44.933Z,12.10
2019-03-24T20:54:17.444Z,13.13
2019-03-24T20:56:50.010Z,13.63
2019-03-24T20:59:22.745Z,12.33
2019-03-24T21:01:55.298Z,13.00
2019-03-24T21:04:27.896Z,13.40
2019-03-24T21:07:00.471Z,13.80
2019-03-24T21:09:33.008Z,13.37
2019-03-24T21:12:05.520Z,12.73
2019-03-24T21:14:38.505Z,11.90
2019-03-24T21:17:10.997Z,13.40
2019-03-24T21:19:43.510Z,14.00
2019-03-24T21:22:16.015Z,12.43
2019-03-24T21:24:48.487Z,12.07
2019-03-24T21:27:21.020Z,13.20
2019-03-24T21:29:54.875Z,14.87
2019-03-24T21:32:27.347Z,12.60
2019-03-24T21:34:59.863Z,13.87
2019-03-24T21:37:33.609Z,14.30
2019-03-24T21:40:06.819Z,13.47
2019-03-24T21:42:39.674Z,13.20
2019-03-24T21:50:17.332Z,13.53
2019-03-24T21:52:49.787Z,13.20
2019-03-24T21:55:22.272Z,14.20
2019-03-24T21:57:57.804Z,13.47
2019-03-24T22:00:35.413Z,13.50
2019-03-24T22:03:09.060Z,15.40
2019-03-24T22:05:41.995Z,14.00
2019-03-24T22:08:14.526Z,14.00
2019-03-24T22:10:47.129Z,14.40
2019-03-24T22:13:19.637Z,12.77
2019-03-24T22:15:52.236Z,14.33
2019-03-24T22:18:24.671Z,12.93
2019-03-24T22:20:57.158Z,13.30
2019-03-24T22:23:29.701Z,12.40
2019-03-24T22:26:02.803Z,12.80
2019-03-24T22:28:34.294Z,13.00
2019-03-24T22:31:06.851Z,12.70
2019-03-24T22:33:39.560Z,13.47
2019-03-24T22:36:12.108Z,12.67
2019-03-24T22:38:44.995Z,13.23
2019-03-24T22:41:17.579Z,12.50
2019-03-24T22:43:50.160Z,12.47
2019-03-24T22:46:22.718Z,12.90
2019-03-24T22:48:55.251Z,12.67
2019-03-24T22:51:27.852Z,13.50
2019-03-24T22:54:03.552Z,12.33
2019-03-24T22:56:34.537Z,10.80
2019-03-24T22:59:07.276Z,9.60
2019-03-24T23:01:39.916Z,9.20
2019-03-24T23:04:13.923Z,9.00
2019-03-24T23:06:46.425Z,8.40
2019-03-24T23:09:19.158Z,8.27
2019-03-24T23:11:51.914Z,8.13
2019-03-24T23:14:24.608Z,8.20
2019-03-24T23:16:57.103Z,7.63
2019-03-24T23:19:29.579Z,6.80
2019-03-24T23:22:02.286Z,7.10
2019-03-24T23:24:34.721Z,6.70
2019-03-24T23:27:07.308Z,5.97
2019-03-24T23:29:40.793Z,6.40
2019-03-24T23:32:13.472Z,7.37
2019-03-24T23:34:46.366Z,6.57
2019-03-24T23:37:18.888Z,6.73
2019-03-24T23:39:51.821Z,5.87
2019-03-24T23:42:24.393Z,6.97
2019-03-24T23:44:57.141Z,5.70
2019-03-24T23:47:29.672Z,5.93
2019-03-24T23:50:02.130Z,6.53
2019-03-24T23:52:34.734Z,5.80
2019-03-24T23:55:07.663Z,6.00
2019-03-24T23:57:40.102Z,5.30
